sensor_id;sensor_type;location;lat;lon;timestamp;P1;durP1;ratioP1;P2;durP2;ratioP2
80101;SDS011;69407;44.966;19.622;2023-05-29T00:01:33;7.47;;;3.20;;
80101;SDS011;69407;44.966;19.622;2023-05-29T00:04:00;7.97;;;3.92;;
80101;SDS011;69407;44.966;19.622;2023-05-29T00:06:26;8.02;;;3.72;;
80101;SDS011;69407;44.966;19.622;2023-05-29T00:08:52;8.05;;;3.70;;
80101;SDS011;69407;44.966;19.622;2023-05-29T00:11:17;9.65;;;4.20;;
80101;SDS011;69407;44.966;19.622;2023-05-29T00:13:43;7.30;;;3.53;;
80101;SDS011;69407;44.966;19.622;2023-05-29T00:16:08;6.82;;;3.55;;
80101;SDS011;69407;44.966;19.622;2023-05-29T00:18:34;5.75;;;2.92;;
80101;SDS011;69407;44.966;19.622;2023-05-29T00:21:01;6.93;;;4.05;;
80101;SDS011;69407;44.966;19.622;2023-05-29T00:23:27;7.65;;;3.67;;
80101;SDS011;69407;44.966;19.622;2023-05-29T00:25:52;7.32;;;4.43;;
80101;SDS011;69407;44.966;19.622;2023-05-29T00:28:18;10.68;;;4.47;;
80101;SDS011;69407;44.966;19.622;2023-05-29T00:30:43;9.68;;;3.80;;
80101;SDS011;69407;44.966;19.622;2023-05-29T00:33:09;5.90;;;3.38;;
80101;SDS011;69407;44.966;19.622;2023-05-29T00:35:34;10.50;;;4.75;;
80101;SDS011;69407;44.966;19.622;2023-05-29T00:38:00;7.57;;;3.63;;
80101;SDS011;69407;44.966;19.622;2023-05-29T00:40:25;8.27;;;3.97;;
80101;SDS011;69407;44.966;19.622;2023-05-29T00:42:51;7.40;;;3.40;;
80101;SDS011;69407;44.966;19.622;2023-05-29T00:45:17;7.82;;;3.97;;
80101;SDS011;69407;44.966;19.622;2023-05-29T00:47:43;6.82;;;3.45;;
80101;SDS011;69407;44.966;19.622;2023-05-29T00:50:10;9.50;;;4.10;;
80101;SDS011;69407;44.966;19.622;2023-05-29T00:52:38;8.00;;;3.55;;
80101;SDS011;69407;44.966;19.622;2023-05-29T00:55:05;7.40;;;3.85;;
80101;SDS011;69407;44.966;19.622;2023-05-29T00:57:32;8.07;;;3.92;;
80101;SDS011;69407;44.966;19.622;2023-05-29T00:59:59;12.13;;;4.28;;
80101;SDS011;69407;44.966;19.622;2023-05-29T01:02:25;5.60;;;3.30;;
80101;SDS011;69407;44.966;19.622;2023-05-29T01:04:54;20.13;;;4.65;;
80101;SDS011;69407;44.966;19.622;2023-05-29T01:07:21;5.68;;;3.63;;
80101;SDS011;69407;44.966;19.622;2023-05-29T01:09:46;6.60;;;3.60;;
80101;SDS011;69407;44.966;19.622;2023-05-29T01:15:14;6.90;;;3.95;;
80101;SDS011;69407;44.966;19.622;2023-05-29T01:20:40;6.57;;;3.22;;
80101;SDS011;69407;44.966;19.622;2023-05-29T01:28:14;5.88;;;3.08;;
80101;SDS011;69407;44.966;19.622;2023-05-29T01:30:43;7.20;;;3.30;;
80101;SDS011;69407;44.966;19.622;2023-05-29T01:33:09;6.00;;;2.70;;
80101;SDS011;69407;44.966;19.622;2023-05-29T01:35:35;7.55;;;3.03;;
80101;SDS011;69407;44.966;19.622;2023-05-29T01:38:01;5.65;;;3.38;;
80101;SDS011;69407;44.966;19.622;2023-05-29T01:40:26;5.13;;;3.30;;
80101;SDS011;69407;44.966;19.622;2023-05-29T01:42:52;6.35;;;3.08;;
80101;SDS011;69407;44.966;19.622;2023-05-29T01:45:17;6.50;;;3.38;;
80101;SDS011;69407;44.966;19.622;2023-05-29T01:47:43;6.45;;;3.80;;
80101;SDS011;69407;44.966;19.622;2023-05-29T01:50:09;5.55;;;3.35;;
80101;SDS011;69407;44.966;19.622;2023-05-29T01:52:38;7.57;;;3.35;;
80101;SDS011;69407;44.966;19.622;2023-05-29T01:55:04;5.85;;;3.35;;
80101;SDS011;69407;44.966;19.622;2023-05-29T01:57:29;5.72;;;2.88;;
80101;SDS011;69407;44.966;19.622;2023-05-29T01:59:55;5.72;;;2.97;;
80101;SDS011;69407;44.966;19.622;2023-05-29T02:02:21;6.10;;;3.63;;
80101;SDS011;69407;44.966;19.622;2023-05-29T02:04:47;5.43;;;2.78;;
80101;SDS011;69407;44.966;19.622;2023-05-29T02:07:13;7.45;;;2.65;;
80101;SDS011;69407;44.966;19.622;2023-05-29T02:09:40;7.85;;;3.35;;
80101;SDS011;69407;44.966;19.622;2023-05-29T02:12:06;7.50;;;2.75;;
80101;SDS011;69407;44.966;19.622;2023-05-29T02:14:32;6.80;;;2.50;;
80101;SDS011;69407;44.966;19.622;2023-05-29T02:16:58;6.15;;;3.17;;
80101;SDS011;69407;44.966;19.622;2023-05-29T02:19:24;5.15;;;2.50;;
80101;SDS011;69407;44.966;19.622;2023-05-29T02:21:50;5.70;;;2.50;;
80101;SDS011;69407;44.966;19.622;2023-05-29T02:24:16;5.38;;;2.80;;
80101;SDS011;69407;44.966;19.622;2023-05-29T02:26:41;6.20;;;2.75;;
80101;SDS011;69407;44.966;19.622;2023-05-29T02:29:07;5.15;;;2.47;;
80101;SDS011;69407;44.966;19.622;2023-05-29T02:31:33;5.10;;;2.90;;
80101;SDS011;69407;44.966;19.622;2023-05-29T02:33:59;7.60;;;3.10;;
80101;SDS011;69407;44.966;19.622;2023-05-29T02:36:24;5.93;;;3.25;;
80101;SDS011;69407;44.966;19.622;2023-05-29T02:38:50;5.22;;;3.05;;
80101;SDS011;69407;44.966;19.622;2023-05-29T02:41:18;7.97;;;3.08;;
80101;SDS011;69407;44.966;19.622;2023-05-29T02:43:43;8.07;;;3.95;;
80101;SDS011;69407;44.966;19.622;2023-05-29T02:46:09;10.27;;;3.70;;
80101;SDS011;69407;44.966;19.622;2023-05-29T02:48:34;8.63;;;3.03;;
80101;SDS011;69407;44.966;19.622;2023-05-29T02:50:59;5.93;;;2.78;;
80101;SDS011;69407;44.966;19.622;2023-05-29T02:53:25;7.95;;;3.70;;
80101;SDS011;69407;44.966;19.622;2023-05-29T02:55:50;6.15;;;2.90;;
80101;SDS011;69407;44.966;19.622;2023-05-29T02:58:16;7.53;;;3.65;;
80101;SDS011;69407;44.966;19.622;2023-05-29T03:00:42;7.15;;;3.58;;
80101;SDS011;69407;44.966;19.622;2023-05-29T03:03:07;8.43;;;4.00;;
80101;SDS011;69407;44.966;19.622;2023-05-29T03:05:33;8.77;;;3.40;;
80101;SDS011;69407;44.966;19.622;2023-05-29T03:07:59;10.05;;;3.65;;
80101;SDS011;69407;44.966;19.622;2023-05-29T03:10:24;8.82;;;3.10;;
80101;SDS011;69407;44.966;19.622;2023-05-29T03:12:50;8.27;;;3.58;;
80101;SDS011;69407;44.966;19.622;2023-05-29T03:15:16;11.38;;;3.83;;
80101;SDS011;69407;44.966;19.622;2023-05-29T03:17:45;10.23;;;4.35;;
80101;SDS011;69407;44.966;19.622;2023-05-29T03:20:11;8.75;;;3.92;;
80101;SDS011;69407;44.966;19.622;2023-05-29T03:22:36;6.88;;;3.35;;
80101;SDS011;69407;44.966;19.622;2023-05-29T03:25:02;10.10;;;3.97;;
80101;SDS011;69407;44.966;19.622;2023-05-29T03:27:29;6.55;;;4.25;;
80101;SDS011;69407;44.966;19.622;2023-05-29T03:29:55;9.85;;;4.35;;
80101;SDS011;69407;44.966;19.622;2023-05-29T03:32:21;10.02;;;4.03;;
80101;SDS011;69407;44.966;19.622;2023-05-29T03:34:46;9.35;;;4.45;;
80101;SDS011;69407;44.966;19.622;2023-05-29T03:37:12;10.57;;;4.07;;
80101;SDS011;69407;44.966;19.622;2023-05-29T03:39:38;9.20;;;3.88;;
80101;SDS011;69407;44.966;19.622;2023-05-29T03:42:04;11.63;;;4.38;;
80101;SDS011;69407;44.966;19.622;2023-05-29T03:44:29;13.52;;;4.32;;
80101;SDS011;69407;44.966;19.622;2023-05-29T03:46:55;13.70;;;5.30;;
80101;SDS011;69407;44.966;19.622;2023-05-29T03:49:20;15.85;;;4.80;;
80101;SDS011;69407;44.966;19.622;2023-05-29T03:51:46;12.77;;;5.03;;
80101;SDS011;69407;44.966;19.622;2023-05-29T03:54:11;8.07;;;4.05;;
80101;SDS011;69407;44.966;19.622;2023-05-29T03:56:37;9.13;;;4.22;;
80101;SDS011;69407;44.966;19.622;2023-05-29T03:59:02;7.10;;;4.07;;
80101;SDS011;69407;44.966;19.622;2023-05-29T04:01:27;7.97;;;4.63;;
80101;SDS011;69407;44.966;19.622;2023-05-29T04:03:53;7.18;;;4.57;;
80101;SDS011;69407;44.966;19.622;2023-05-29T04:06:19;8.38;;;4.95;;
80101;SDS011;69407;44.966;19.622;2023-05-29T04:08:45;10.00;;;5.38;;
80101;SDS011;69407;44.966;19.622;2023-05-29T04:11:10;8.10;;;4.45;;
80101;SDS011;69407;44.966;19.622;2023-05-29T04:13:37;11.43;;;5.88;;
80101;SDS011;69407;44.966;19.622;2023-05-29T04:16:03;8.65;;;4.85;;
80101;SDS011;69407;44.966;19.622;2023-05-29T04:18:28;10.98;;;5.03;;
80101;SDS011;69407;44.966;19.622;2023-05-29T04:20:54;10.60;;;5.05;;
80101;SDS011;69407;44.966;19.622;2023-05-29T04:23:20;8.90;;;5.15;;
80101;SDS011;69407;44.966;19.622;2023-05-29T04:25:46;9.10;;;4.30;;
80101;SDS011;69407;44.966;19.622;2023-05-29T04:28:12;9.43;;;5.03;;
80101;SDS011;69407;44.966;19.622;2023-05-29T04:30:37;7.40;;;4.50;;
80101;SDS011;69407;44.966;19.622;2023-05-29T04:33:04;9.80;;;4.70;;
80101;SDS011;69407;44.966;19.622;2023-05-29T04:35:30;10.60;;;4.70;;
80101;SDS011;69407;44.966;19.622;2023-05-29T04:37:55;8.50;;;4.85;;
80101;SDS011;69407;44.966;19.622;2023-05-29T04:40:21;9.52;;;6.10;;
80101;SDS011;69407;44.966;19.622;2023-05-29T04:42:47;12.63;;;5.88;;
80101;SDS011;69407;44.966;19.622;2023-05-29T04:45:13;10.07;;;5.55;;
80101;SDS011;69407;44.966;19.622;2023-05-29T04:47:39;11.20;;;6.03;;
80101;SDS011;69407;44.966;19.622;2023-05-29T04:50:09;8.27;;;4.85;;
80101;SDS011;69407;44.966;19.622;2023-05-29T04:52:36;10.60;;;5.57;;
80101;SDS011;69407;44.966;19.622;2023-05-29T04:55:02;16.05;;;5.85;;
80101;SDS011;69407;44.966;19.622;2023-05-29T04:57:28;11.27;;;5.53;;
80101;SDS011;69407;44.966;19.622;2023-05-29T04:59:53;15.45;;;5.82;;
80101;SDS011;69407;44.966;19.622;2023-05-29T05:02:19;11.85;;;4.57;;
80101;SDS011;69407;44.966;19.622;2023-05-29T05:04:45;10.07;;;4.95;;
80101;SDS011;69407;44.966;19.622;2023-05-29T05:07:11;9.32;;;4.53;;
80101;SDS011;69407;44.966;19.622;2023-05-29T05:09:37;8.60;;;4.40;;
80101;SDS011;69407;44.966;19.622;2023-05-29T05:12:02;11.95;;;4.28;;
80101;SDS011;69407;44.966;19.622;2023-05-29T05:14:28;7.82;;;3.78;;
80101;SDS011;69407;44.966;19.622;2023-05-29T05:16:53;9.65;;;4.22;;
80101;SDS011;69407;44.966;19.622;2023-05-29T05:19:19;9.15;;;4.18;;
80101;SDS011;69407;44.966;19.622;2023-05-29T05:21:45;6.70;;;4.20;;
80101;SDS011;69407;44.966;19.622;2023-05-29T05:24:11;22.77;;;4.43;;
80101;SDS011;69407;44.966;19.622;2023-05-29T05:26:36;4.97;;;3.17;;
80101;SDS011;69407;44.966;19.622;2023-05-29T05:29:02;6.78;;;3.38;;
80101;SDS011;69407;44.966;19.622;2023-05-29T05:31:27;10.45;;;4.32;;
80101;SDS011;69407;44.966;19.622;2023-05-29T05:33:53;8.13;;;4.35;;
80101;SDS011;69407;44.966;19.622;2023-05-29T05:36:18;9.25;;;3.70;;
80101;SDS011;69407;44.966;19.622;2023-05-29T05:38:45;6.90;;;4.18;;
80101;SDS011;69407;44.966;19.622;2023-05-29T05:41:10;8.73;;;3.65;;
80101;SDS011;69407;44.966;19.622;2023-05-29T05:43:36;8.77;;;4.05;;
80101;SDS011;69407;44.966;19.622;2023-05-29T05:46:02;7.93;;;3.75;;
80101;SDS011;69407;44.966;19.622;2023-05-29T05:48:27;7.82;;;4.03;;
80101;SDS011;69407;44.966;19.622;2023-05-29T05:50:53;6.72;;;3.55;;
80101;SDS011;69407;44.966;19.622;2023-05-29T05:53:18;8.63;;;3.85;;
80101;SDS011;69407;44.966;19.622;2023-05-29T05:55:43;10.52;;;4.10;;
80101;SDS011;69407;44.966;19.622;2023-05-29T05:58:09;7.07;;;3.90;;
80101;SDS011;69407;44.966;19.622;2023-05-29T06:00:35;7.13;;;3.60;;
80101;SDS011;69407;44.966;19.622;2023-05-29T06:03:01;8.40;;;3.67;;
80101;SDS011;69407;44.966;19.622;2023-05-29T06:05:28;12.38;;;4.60;;
80101;SDS011;69407;44.966;19.622;2023-05-29T06:07:54;7.75;;;3.95;;
80101;SDS011;69407;44.966;19.622;2023-05-29T06:10:20;9.10;;;4.35;;
80101;SDS011;69407;44.966;19.622;2023-05-29T06:12:45;6.95;;;3.95;;
80101;SDS011;69407;44.966;19.622;2023-05-29T06:15:10;7.22;;;3.95;;
80101;SDS011;69407;44.966;19.622;2023-05-29T06:17:36;6.90;;;3.70;;
80101;SDS011;69407;44.966;19.622;2023-05-29T06:20:01;8.10;;;4.30;;
80101;SDS011;69407;44.966;19.622;2023-05-29T06:22:30;7.07;;;3.83;;
80101;SDS011;69407;44.966;19.622;2023-05-29T06:24:55;7.18;;;3.90;;
80101;SDS011;69407;44.966;19.622;2023-05-29T06:27:21;10.90;;;3.88;;
80101;SDS011;69407;44.966;19.622;2023-05-29T06:29:50;9.68;;;3.75;;
80101;SDS011;69407;44.966;19.622;2023-05-29T06:32:16;5.78;;;3.60;;
80101;SDS011;69407;44.966;19.622;2023-05-29T06:34:41;7.30;;;4.13;;
80101;SDS011;69407;44.966;19.622;2023-05-29T06:37:07;8.70;;;3.53;;
80101;SDS011;69407;44.966;19.622;2023-05-29T06:39:34;8.75;;;3.80;;
80101;SDS011;69407;44.966;19.622;2023-05-29T06:41:59;9.95;;;4.25;;
80101;SDS011;69407;44.966;19.622;2023-05-29T06:44:26;9.05;;;4.72;;
80101;SDS011;69407;44.966;19.622;2023-05-29T06:46:52;5.97;;;3.63;;
80101;SDS011;69407;44.966;19.622;2023-05-29T06:49:17;9.40;;;4.78;;
80101;SDS011;69407;44.966;19.622;2023-05-29T06:51:44;10.63;;;4.45;;
80101;SDS011;69407;44.966;19.622;2023-05-29T06:54:09;9.63;;;3.90;;
80101;SDS011;69407;44.966;19.622;2023-05-29T06:56:35;6.97;;;3.83;;
80101;SDS011;69407;44.966;19.622;2023-05-29T06:59:00;11.45;;;4.43;;
80101;SDS011;69407;44.966;19.622;2023-05-29T07:01:26;8.85;;;4.30;;
80101;SDS011;69407;44.966;19.622;2023-05-29T07:03:52;7.57;;;4.35;;
80101;SDS011;69407;44.966;19.622;2023-05-29T07:06:18;9.02;;;4.25;;
80101;SDS011;69407;44.966;19.622;2023-05-29T07:08:44;8.60;;;4.00;;
80101;SDS011;69407;44.966;19.622;2023-05-29T07:11:09;10.27;;;4.32;;
80101;SDS011;69407;44.966;19.622;2023-05-29T07:13:34;10.13;;;4.88;;
80101;SDS011;69407;44.966;19.622;2023-05-29T07:16:00;9.23;;;4.80;;
80101;SDS011;69407;44.966;19.622;2023-05-29T07:18:26;9.77;;;4.93;;
80101;SDS011;69407;44.966;19.622;2023-05-29T07:20:52;9.52;;;5.07;;
80101;SDS011;69407;44.966;19.622;2023-05-29T07:23:17;10.30;;;4.90;;
80101;SDS011;69407;44.966;19.622;2023-05-29T07:25:43;6.88;;;4.60;;
80101;SDS011;69407;44.966;19.622;2023-05-29T07:28:08;10.77;;;5.10;;
80101;SDS011;69407;44.966;19.622;2023-05-29T07:30:34;8.15;;;5.22;;
80101;SDS011;69407;44.966;19.622;2023-05-29T07:32:59;10.15;;;5.40;;
80101;SDS011;69407;44.966;19.622;2023-05-29T07:35:25;8.27;;;5.47;;
80101;SDS011;69407;44.966;19.622;2023-05-29T07:37:50;11.23;;;6.22;;
80101;SDS011;69407;44.966;19.622;2023-05-29T07:40:17;10.93;;;6.75;;
80101;SDS011;69407;44.966;19.622;2023-05-29T07:42:42;11.93;;;5.55;;
80101;SDS011;69407;44.966;19.622;2023-05-29T07:45:08;8.52;;;5.10;;
80101;SDS011;69407;44.966;19.622;2023-05-29T07:47:34;9.50;;;5.55;;
80101;SDS011;69407;44.966;19.622;2023-05-29T07:49:59;11.05;;;6.75;;
80101;SDS011;69407;44.966;19.622;2023-05-29T07:52:25;10.85;;;5.43;;
80101;SDS011;69407;44.966;19.622;2023-05-29T07:54:50;8.07;;;5.70;;
80101;SDS011;69407;44.966;19.622;2023-05-29T07:57:17;9.15;;;6.38;;
80101;SDS011;69407;44.966;19.622;2023-05-29T07:59:43;9.20;;;6.38;;
80101;SDS011;69407;44.966;19.622;2023-05-29T08:02:08;9.30;;;5.82;;
80101;SDS011;69407;44.966;19.622;2023-05-29T08:04:34;10.15;;;6.15;;
80101;SDS011;69407;44.966;19.622;2023-05-29T08:07:01;9.30;;;6.75;;
80101;SDS011;69407;44.966;19.622;2023-05-29T08:09:30;10.15;;;5.88;;
80101;SDS011;69407;44.966;19.622;2023-05-29T08:11:56;11.75;;;7.10;;
80101;SDS011;69407;44.966;19.622;2023-05-29T08:14:22;9.52;;;6.85;;
80101;SDS011;69407;44.966;19.622;2023-05-29T08:16:47;11.65;;;5.90;;
80101;SDS011;69407;44.966;19.622;2023-05-29T08:19:13;9.55;;;6.03;;
80101;SDS011;69407;44.966;19.622;2023-05-29T08:21:38;9.68;;;6.40;;
80101;SDS011;69407;44.966;19.622;2023-05-29T08:24:04;8.45;;;6.32;;
80101;SDS011;69407;44.966;19.622;2023-05-29T08:26:30;7.72;;;6.10;;
80101;SDS011;69407;44.966;19.622;2023-05-29T08:28:56;11.00;;;6.00;;
80101;SDS011;69407;44.966;19.622;2023-05-29T08:31:22;9.07;;;6.95;;
80101;SDS011;69407;44.966;19.622;2023-05-29T08:33:50;10.98;;;6.18;;
80101;SDS011;69407;44.966;19.622;2023-05-29T08:36:16;10.10;;;6.03;;
80101;SDS011;69407;44.966;19.622;2023-05-29T08:38:42;12.57;;;6.47;;
80101;SDS011;69407;44.966;19.622;2023-05-29T08:41:08;10.98;;;6.75;;
80101;SDS011;69407;44.966;19.622;2023-05-29T08:43:37;14.63;;;6.72;;
80101;SDS011;69407;44.966;19.622;2023-05-29T08:46:06;9.50;;;6.60;;
80101;SDS011;69407;44.966;19.622;2023-05-29T08:48:32;12.27;;;6.90;;
80101;SDS011;69407;44.966;19.622;2023-05-29T08:51:01;10.20;;;6.75;;
80101;SDS011;69407;44.966;19.622;2023-05-29T08:53:27;11.23;;;7.80;;
80101;SDS011;69407;44.966;19.622;2023-05-29T08:55:53;11.23;;;6.75;;
80101;SDS011;69407;44.966;19.622;2023-05-29T08:58:20;15.10;;;7.70;;
80101;SDS011;69407;44.966;19.622;2023-05-29T09:00:47;10.60;;;6.75;;
80101;SDS011;69407;44.966;19.622;2023-05-29T09:03:14;15.10;;;8.23;;
80101;SDS011;69407;44.966;19.622;2023-05-29T09:05:39;15.15;;;8.10;;
80101;SDS011;69407;44.966;19.622;2023-05-29T09:08:09;11.02;;;7.70;;
80101;SDS011;69407;44.966;19.622;2023-05-29T09:10:37;12.63;;;8.23;;
80101;SDS011;69407;44.966;19.622;2023-05-29T09:15:30;14.27;;;8.00;;
80101;SDS011;69407;44.966;19.622;2023-05-29T09:17:56;12.50;;;7.32;;
80101;SDS011;69407;44.966;19.622;2023-05-29T09:20:23;10.43;;;7.03;;
80101;SDS011;69407;44.966;19.622;2023-05-29T09:22:56;10.98;;;6.82;;
80101;SDS011;69407;44.966;19.622;2023-05-29T09:25:23;12.43;;;6.68;;
80101;SDS011;69407;44.966;19.622;2023-05-29T09:27:54;12.95;;;6.78;;
80101;SDS011;69407;44.966;19.622;2023-05-29T09:30:37;14.32;;;7.43;;
80101;SDS011;69407;44.966;19.622;2023-05-29T09:33:04;8.10;;;5.53;;
80101;SDS011;69407;44.966;19.622;2023-05-29T09:35:38;7.65;;;5.65;;
80101;SDS011;69407;44.966;19.622;2023-05-29T09:38:14;7.88;;;5.97;;
80101;SDS011;69407;44.966;19.622;2023-05-29T09:40:44;9.55;;;6.20;;
80101;SDS011;69407;44.966;19.622;2023-05-29T09:43:16;9.70;;;5.60;;
80101;SDS011;69407;44.966;19.622;2023-05-29T09:45:43;8.38;;;5.28;;
80101;SDS011;69407;44.966;19.622;2023-05-29T09:50:40;6.25;;;4.55;;
80101;SDS011;69407;44.966;19.622;2023-05-29T09:53:43;11.23;;;6.93;;
80101;SDS011;69407;44.966;19.622;2023-05-29T09:56:05;11.73;;;5.88;;
80101;SDS011;69407;44.966;19.622;2023-05-29T09:58:32;8.13;;;6.15;;
80101;SDS011;69407;44.966;19.622;2023-05-29T10:00:59;8.65;;;4.93;;
80101;SDS011;69407;44.966;19.622;2023-05-29T10:03:25;6.90;;;4.53;;
80101;SDS011;69407;44.966;19.622;2023-05-29T10:05:52;9.70;;;5.60;;
80101;SDS011;69407;44.966;19.622;2023-05-29T10:08:21;8.98;;;6.03;;
80101;SDS011;69407;44.966;19.622;2023-05-29T10:10:54;11.98;;;8.07;;
80101;SDS011;69407;44.966;19.622;2023-05-29T10:13:26;7.45;;;6.40;;
80101;SDS011;69407;44.966;19.622;2023-05-29T10:15:56;9.27;;;5.55;;
80101;SDS011;69407;44.966;19.622;2023-05-29T10:18:24;7.50;;;6.15;;
80101;SDS011;69407;44.966;19.622;2023-05-29T10:20:54;10.02;;;5.20;;
80101;SDS011;69407;44.966;19.622;2023-05-29T10:23:23;10.18;;;6.55;;
80101;SDS011;69407;44.966;19.622;2023-05-29T10:25:53;10.05;;;5.97;;
80101;SDS011;69407;44.966;19.622;2023-05-29T10:28:29;9.27;;;7.18;;
80101;SDS011;69407;44.966;19.622;2023-05-29T10:31:03;8.55;;;6.03;;
80101;SDS011;69407;44.966;19.622;2023-05-29T10:33:56;9.65;;;6.15;;
80101;SDS011;69407;44.966;19.622;2023-05-29T10:36:42;7.88;;;6.00;;
80101;SDS011;69407;44.966;19.622;2023-05-29T10:39:12;8.30;;;6.18;;
80101;SDS011;69407;44.966;19.622;2023-05-29T10:41:38;7.82;;;6.93;;
80101;SDS011;69407;44.966;19.622;2023-05-29T10:49:25;9.95;;;7.93;;
80101;SDS011;69407;44.966;19.622;2023-05-29T10:51:51;14.15;;;12.48;;
80101;SDS011;69407;44.966;19.622;2023-05-29T10:54:24;10.68;;;7.10;;
80101;SDS011;69407;44.966;19.622;2023-05-29T10:56:57;10.82;;;8.00;;
80101;SDS011;69407;44.966;19.622;2023-05-29T10:59:25;12.65;;;8.80;;
80101;SDS011;69407;44.966;19.622;2023-05-29T11:01:53;13.30;;;9.93;;
80101;SDS011;69407;44.966;19.622;2023-05-29T11:06:46;22.77;;;20.30;;
80101;SDS011;69407;44.966;19.622;2023-05-29T11:12:35;25.90;;;15.43;;
80101;SDS011;69407;44.966;19.622;2023-05-29T11:15:00;32.15;;;29.02;;
80101;SDS011;69407;44.966;19.622;2023-05-29T11:20:03;12.27;;;6.75;;
80101;SDS011;69407;44.966;19.622;2023-05-29T11:23:14;10.90;;;7.88;;
80101;SDS011;69407;44.966;19.622;2023-05-29T11:25:27;9.43;;;8.43;;
80101;SDS011;69407;44.966;19.622;2023-05-29T11:27:53;9.93;;;7.05;;
80101;SDS011;69407;44.966;19.622;2023-05-29T11:30:19;9.07;;;7.90;;
80101;SDS011;69407;44.966;19.622;2023-05-29T11:32:46;10.35;;;8.20;;
80101;SDS011;69407;44.966;19.622;2023-05-29T11:35:12;10.20;;;8.00;;
80101;SDS011;69407;44.966;19.622;2023-05-29T11:37:39;9.13;;;7.88;;
80101;SDS011;69407;44.966;19.622;2023-05-29T11:40:08;8.45;;;7.30;;
80101;SDS011;69407;44.966;19.622;2023-05-29T11:42:44;8.50;;;7.18;;
80101;SDS011;69407;44.966;19.622;2023-05-29T11:45:14;9.85;;;7.40;;
80101;SDS011;69407;44.966;19.622;2023-05-29T11:47:53;12.35;;;8.13;;
80101;SDS011;69407;44.966;19.622;2023-05-29T11:50:24;15.85;;;8.07;;
80101;SDS011;69407;44.966;19.622;2023-05-29T11:52:49;10.13;;;7.18;;
80101;SDS011;69407;44.966;19.622;2023-05-29T11:55:17;12.05;;;8.48;;
80101;SDS011;69407;44.966;19.622;2023-05-29T11:57:44;9.68;;;7.20;;
80101;SDS011;69407;44.966;19.622;2023-05-29T12:00:12;9.85;;;7.40;;
80101;SDS011;69407;44.966;19.622;2023-05-29T12:02:39;9.82;;;7.20;;
80101;SDS011;69407;44.966;19.622;2023-05-29T12:05:05;7.93;;;6.88;;
80101;SDS011;69407;44.966;19.622;2023-05-29T12:07:35;9.07;;;7.63;;
80101;SDS011;69407;44.966;19.622;2023-05-29T12:12:40;10.48;;;7.55;;
80101;SDS011;69407;44.966;19.622;2023-05-29T12:15:06;9.95;;;8.43;;
80101;SDS011;69407;44.966;19.622;2023-05-29T12:17:34;9.45;;;7.95;;
80101;SDS011;69407;44.966;19.622;2023-05-29T12:20:00;9.68;;;8.43;;
80101;SDS011;69407;44.966;19.622;2023-05-29T12:22:33;10.55;;;9.05;;
80101;SDS011;69407;44.966;19.622;2023-05-29T12:25:15;9.80;;;8.18;;
80101;SDS011;69407;44.966;19.622;2023-05-29T12:27:42;7.60;;;6.50;;
80101;SDS011;69407;44.966;19.622;2023-05-29T12:30:12;7.47;;;6.47;;
80101;SDS011;69407;44.966;19.622;2023-05-29T12:32:40;9.82;;;7.78;;
80101;SDS011;69407;44.966;19.622;2023-05-29T12:37:46;7.45;;;6.60;;
80101;SDS011;69407;44.966;19.622;2023-05-29T12:40:19;10.07;;;7.82;;
80101;SDS011;69407;44.966;19.622;2023-05-29T12:42:47;10.48;;;7.68;;
80101;SDS011;69407;44.966;19.622;2023-05-29T12:45:13;10.20;;;7.43;;
80101;SDS011;69407;44.966;19.622;2023-05-29T12:50:30;11.73;;;6.50;;
80101;SDS011;69407;44.966;19.622;2023-05-29T12:55:34;9.73;;;8.00;;
80101;SDS011;69407;44.966;19.622;2023-05-29T12:58:10;12.55;;;8.90;;
80101;SDS011;69407;44.966;19.622;2023-05-29T13:00:40;12.70;;;8.48;;
80101;SDS011;69407;44.966;19.622;2023-05-29T13:03:07;10.02;;;8.90;;
80101;SDS011;69407;44.966;19.622;2023-05-29T13:05:33;11.48;;;7.70;;
80101;SDS011;69407;44.966;19.622;2023-05-29T13:08:00;11.30;;;8.18;;
80101;SDS011;69407;44.966;19.622;2023-05-29T13:10:26;10.85;;;8.50;;
80101;SDS011;69407;44.966;19.622;2023-05-29T13:12:53;10.82;;;8.68;;
80101;SDS011;69407;44.966;19.622;2023-05-29T13:15:23;9.15;;;8.07;;
80101;SDS011;69407;44.966;19.622;2023-05-29T13:17:49;9.02;;;7.57;;
80101;SDS011;69407;44.966;19.622;2023-05-29T13:20:15;11.15;;;7.95;;
80101;SDS011;69407;44.966;19.622;2023-05-29T13:22:42;8.85;;;7.05;;
80101;SDS011;69407;44.966;19.622;2023-05-29T13:25:10;10.68;;;7.80;;
80101;SDS011;69407;44.966;19.622;2023-05-29T13:27:37;10.90;;;7.65;;
80101;SDS011;69407;44.966;19.622;2023-05-29T13:30:05;8.65;;;7.75;;
80101;SDS011;69407;44.966;19.622;2023-05-29T13:32:31;10.98;;;7.00;;
80101;SDS011;69407;44.966;19.622;2023-05-29T13:34:57;8.40;;;6.70;;
80101;SDS011;69407;44.966;19.622;2023-05-29T13:37:23;7.93;;;6.78;;
80101;SDS011;69407;44.966;19.622;2023-05-29T13:39:48;9.65;;;8.20;;
80101;SDS011;69407;44.966;19.622;2023-05-29T13:42:14;9.05;;;7.30;;
80101;SDS011;69407;44.966;19.622;2023-05-29T13:44:40;10.13;;;7.38;;
80101;SDS011;69407;44.966;19.622;2023-05-29T13:47:05;9.65;;;8.23;;
80101;SDS011;69407;44.966;19.622;2023-05-29T13:49:32;9.10;;;8.20;;
80101;SDS011;69407;44.966;19.622;2023-05-29T13:51:58;9.35;;;7.65;;
80101;SDS011;69407;44.966;19.622;2023-05-29T13:54:24;13.60;;;8.00;;
80101;SDS011;69407;44.966;19.622;2023-05-29T13:56:49;10.68;;;7.70;;
80101;SDS011;69407;44.966;19.622;2023-05-29T13:59:15;11.35;;;7.93;;
80101;SDS011;69407;44.966;19.622;2023-05-29T14:01:40;10.98;;;8.52;;
80101;SDS011;69407;44.966;19.622;2023-05-29T14:04:06;11.25;;;7.97;;
80101;SDS011;69407;44.966;19.622;2023-05-29T14:06:32;9.02;;;7.70;;
80101;SDS011;69407;44.966;19.622;2023-05-29T14:08:58;11.10;;;7.07;;
80101;SDS011;69407;44.966;19.622;2023-05-29T14:11:24;9.63;;;8.07;;
80101;SDS011;69407;44.966;19.622;2023-05-29T14:13:50;11.95;;;8.40;;
80101;SDS011;69407;44.966;19.622;2023-05-29T14:16:15;9.30;;;8.00;;
80101;SDS011;69407;44.966;19.622;2023-05-29T14:18:41;8.13;;;5.93;;
80101;SDS011;69407;44.966;19.622;2023-05-29T14:21:07;8.23;;;6.90;;
80101;SDS011;69407;44.966;19.622;2023-05-29T14:23:33;10.50;;;7.15;;
80101;SDS011;69407;44.966;19.622;2023-05-29T14:25:59;8.40;;;6.40;;
80101;SDS011;69407;44.966;19.622;2023-05-29T14:28:26;8.80;;;7.32;;
80101;SDS011;69407;44.966;19.622;2023-05-29T14:30:51;8.70;;;6.82;;
80101;SDS011;69407;44.966;19.622;2023-05-29T14:33:17;8.63;;;7.55;;
80101;SDS011;69407;44.966;19.622;2023-05-29T14:35:43;11.85;;;7.00;;
80101;SDS011;69407;44.966;19.622;2023-05-29T14:38:08;7.85;;;6.95;;
80101;SDS011;69407;44.966;19.622;2023-05-29T14:40:34;8.35;;;6.75;;
80101;SDS011;69407;44.966;19.622;2023-05-29T14:43:00;18.27;;;4.97;;
80101;SDS011;69407;44.966;19.622;2023-05-29T14:45:26;5.80;;;2.72;;
80101;SDS011;69407;44.966;19.622;2023-05-29T14:47:52;9.15;;;3.47;;
80101;SDS011;69407;44.966;19.622;2023-05-29T14:50:17;5.88;;;2.92;;
80101;SDS011;69407;44.966;19.622;2023-05-29T14:52:43;9.85;;;3.17;;
80101;SDS011;69407;44.966;19.622;2023-05-29T14:55:08;10.23;;;3.42;;
80101;SDS011;69407;44.966;19.622;2023-05-29T14:57:34;6.30;;;2.90;;
80101;SDS011;69407;44.966;19.622;2023-05-29T15:00:03;7.90;;;2.88;;
80101;SDS011;69407;44.966;19.622;2023-05-29T15:02:31;11.13;;;3.67;;
80101;SDS011;69407;44.966;19.622;2023-05-29T15:04:56;5.72;;;3.17;;
80101;SDS011;69407;44.966;19.622;2023-05-29T15:07:22;7.47;;;3.40;;
80101;SDS011;69407;44.966;19.622;2023-05-29T15:09:47;9.90;;;4.40;;